createdAt,value
2023-08-11T00:01:31.014Z,102091.94
2023-08-11T00:03:58.426Z,102074.00
2023-08-11T00:06:26.559Z,102096.56
2023-08-11T00:08:56.387Z,102039.84
2023-08-11T00:11:23.723Z,102067.59
2023-08-11T00:13:50.834Z,102088.59
2023-08-11T00:16:17.630Z,102093.41
2023-08-11T00:18:44.433Z,102072.94
2023-08-11T00:21:11.137Z,102090.59
2023-08-11T00:23:40.777Z,102095.53
2023-08-11T00:26:07.726Z,102073.06
2023-08-11T00:28:34.464Z,102080.09
2023-08-11T00:31:01.153Z,102098.59
2023-08-11T00:33:28.229Z,102087.91
2023-08-11T00:35:55.004Z,102069.75
2023-08-11T00:38:31.164Z,102092.88
2023-08-11T00:40:57.844Z,102078.28
2023-08-11T00:43:24.468Z,102071.81
2023-08-11T00:45:51.263Z,102081.22
2023-08-11T00:48:18.817Z,102090.13
2023-08-11T00:50:45.752Z,102078.63
2023-08-11T00:53:12.524Z,102063.69
2023-08-11T00:55:39.366Z,102065.53
2023-08-11T00:58:07.680Z,102080.88
2023-08-11T01:00:34.455Z,102046.41
2023-08-11T01:03:01.530Z,102060.06
2023-08-11T01:05:31.509Z,102062.91
2023-08-11T01:08:35.286Z,102072.63
2023-08-11T01:11:11.001Z,102054.78
2023-08-11T01:13:42.597Z,102053.66
2023-08-11T01:16:09.577Z,102064.06
2023-08-11T01:18:36.971Z,102043.22
2023-08-11T01:21:11.178Z,102056.63
2023-08-11T01:23:38.543Z,102022.31
2023-08-11T01:26:06.365Z,102029.59
2023-08-11T01:28:35.735Z,102015.66
2023-08-11T01:31:02.578Z,102027.78
2023-08-11T01:33:29.236Z,102051.75
2023-08-11T01:35:56.044Z,102057.38
2023-08-11T01:38:22.670Z,102062.72
2023-08-11T01:40:49.990Z,102056.69
2023-08-11T01:43:18.512Z,102027.94
2023-08-11T01:45:45.617Z,102049.22
2023-08-11T01:48:14.095Z,102029.78
2023-08-11T01:50:41.357Z,102037.34
2023-08-11T01:53:09.047Z,102013.31
2023-08-11T01:55:36.476Z,102039.34
2023-08-11T01:58:03.694Z,102041.03
2023-08-11T02:00:30.405Z,102038.66
2023-08-11T02:02:59.543Z,102036.25
2023-08-11T02:05:26.977Z,102036.56
2023-08-11T02:07:54.730Z,102035.13
2023-08-11T02:10:21.669Z,102037.53
2023-08-11T02:12:49.354Z,102044.84
2023-08-11T02:15:16.117Z,102040.50
2023-08-11T02:17:43.789Z,102041.78
2023-08-11T02:20:24.819Z,102031.34
2023-08-11T02:22:53.394Z,102024.31
2023-08-11T02:25:20.493Z,101985.91
2023-08-11T02:27:47.293Z,102027.28
2023-08-11T02:30:15.632Z,102028.97
2023-08-11T02:32:43.175Z,102019.25
2023-08-11T02:35:11.749Z,102012.06
2023-08-11T02:37:38.635Z,102025.59
2023-08-11T02:40:09.581Z,102029.38
2023-08-11T02:42:39.525Z,102020.50
2023-08-11T02:45:10.641Z,102010.38
2023-08-11T02:47:37.627Z,102009.41
2023-08-11T02:50:06.709Z,101974.22
2023-08-11T02:52:34.134Z,101990.13
2023-08-11T02:55:00.831Z,101983.09
2023-08-11T02:57:27.772Z,101987.88
2023-08-11T02:59:54.669Z,102002.22
2023-08-11T03:02:21.477Z,101982.50
2023-08-11T03:04:48.847Z,101972.25
2023-08-11T03:07:17.350Z,101989.56
2023-08-11T03:09:44.375Z,101992.81
2023-08-11T03:12:12.003Z,101990.69
2023-08-11T03:14:38.759Z,101989.28
2023-08-11T03:17:06.616Z,102014.22
2023-08-11T03:19:33.877Z,101995.75
2023-08-11T03:22:00.668Z,101909.03
2023-08-11T03:24:27.353Z,101973.81
2023-08-11T03:26:54.125Z,102004.75
2023-08-11T03:29:20.826Z,101999.00
2023-08-11T03:31:47.466Z,101971.25
2023-08-11T03:34:14.412Z,102002.53
2023-08-11T03:36:41.157Z,102006.88
2023-08-11T03:39:07.891Z,102010.94
2023-08-11T03:41:34.619Z,101992.53
2023-08-11T03:44:01.564Z,102007.72
2023-08-11T03:46:28.481Z,102013.63
2023-08-11T03:48:55.639Z,102005.75
2023-08-11T03:51:22.531Z,102019.41
2023-08-11T03:53:49.324Z,102010.53
2023-08-11T03:56:16.002Z,102006.75
2023-08-11T03:58:42.804Z,101984.22
2023-08-11T04:01:09.475Z,102006.47
2023-08-11T04:03:36.257Z,102006.47
2023-08-11T04:06:03.166Z,101999.56
2023-08-11T04:08:29.924Z,102004.78
2023-08-11T04:10:56.700Z,101998.00
2023-08-11T04:13:23.548Z,101983.97
2023-08-11T04:15:52.282Z,102013.22
2023-08-11T04:18:19.696Z,101996.03
2023-08-11T04:20:48.399Z,102001.13
2023-08-11T04:23:15.013Z,101988.16
2023-08-11T04:25:41.788Z,102001.41
2023-08-11T04:28:08.507Z,102009.00
2023-08-11T04:30:35.150Z,101991.25
2023-08-11T04:33:01.970Z,101987.47
2023-08-11T04:35:28.839Z,101974.34
2023-08-11T04:37:55.476Z,101961.41
2023-08-11T04:40:22.086Z,101986.63
2023-08-11T04:42:49.164Z,101965.34
2023-08-11T04:45:19.437Z,101989.25
2023-08-11T04:47:46.442Z,101975.59
2023-08-11T04:50:13.247Z,101981.09
2023-08-11T04:52:39.941Z,101990.66
2023-08-11T04:55:08.977Z,101974.63
2023-08-11T04:57:36.594Z,101988.00
2023-08-11T05:00:06.539Z,101987.81
2023-08-11T05:02:34.460Z,101978.53
2023-08-11T05:05:01.681Z,101958.75
2023-08-11T05:07:28.378Z,101969.94
2023-08-11T05:09:55.168Z,101980.31
2023-08-11T05:12:21.904Z,101968.53
2023-08-11T05:14:48.952Z,101980.78
2023-08-11T05:17:15.834Z,101978.72
2023-08-11T05:19:42.668Z,101980.03
2023-08-11T05:22:09.372Z,101974.44
2023-08-11T05:24:37.925Z,101984.34
2023-08-11T05:27:04.729Z,101972.50
2023-08-11T05:29:31.462Z,101969.94
2023-08-11T05:31:58.577Z,101977.59
2023-08-11T05:34:25.282Z,101979.25
2023-08-11T05:36:51.946Z,101967.41
2023-08-11T05:39:18.749Z,101970.44
2023-08-11T05:41:45.497Z,101969.59
2023-08-11T05:44:12.137Z,101947.59
2023-08-11T05:46:38.885Z,101970.38
2023-08-11T05:49:05.823Z,101954.97
2023-08-11T05:51:32.523Z,101955.00
2023-08-11T05:53:59.274Z,101975.06
2023-08-11T05:56:26.593Z,101951.22
2023-08-11T05:58:53.646Z,101964.53
2023-08-11T06:01:20.321Z,101970.31
2023-08-11T06:03:47.126Z,101939.72
2023-08-11T06:06:13.918Z,101960.00
2023-08-11T06:08:40.631Z,101953.56
2023-08-11T06:11:07.309Z,101966.69
2023-08-11T06:13:34.045Z,101957.34
2023-08-11T06:16:00.862Z,101932.94
2023-08-11T06:18:28.186Z,101970.47
2023-08-11T06:20:54.945Z,101968.44
2023-08-11T06:23:21.583Z,101974.25
2023-08-11T06:25:48.444Z,101975.38
2023-08-11T06:28:15.421Z,101972.72
2023-08-11T06:30:42.275Z,101958.06
2023-08-11T06:33:09.127Z,101954.47
2023-08-11T06:35:35.882Z,101940.19
2023-08-11T06:38:02.640Z,101934.41
2023-08-11T06:40:30.851Z,101953.41
2023-08-11T06:42:57.948Z,101954.19
2023-08-11T06:45:24.942Z,101939.34
2023-08-11T06:47:52.655Z,101946.84
2023-08-11T06:50:20.163Z,101945.72
2023-08-11T06:52:46.855Z,101946.19
2023-08-11T06:55:13.604Z,101946.59
2023-08-11T06:57:40.317Z,101949.09
2023-08-11T07:00:10.591Z,101955.25
2023-08-11T07:02:37.455Z,101938.88
2023-08-11T07:05:04.746Z,101961.69
2023-08-11T07:07:31.737Z,101943.03
2023-08-11T07:10:00.658Z,101978.47
2023-08-11T07:12:29.244Z,101959.94
2023-08-11T07:14:56.036Z,101964.44
2023-08-11T07:17:24.330Z,101978.88
2023-08-11T07:19:51.026Z,101977.97
2023-08-11T07:22:20.556Z,101964.84
2023-08-11T07:24:47.360Z,101976.59
2023-08-11T07:27:15.727Z,101980.25
2023-08-11T07:29:43.740Z,101978.97
2023-08-11T07:32:10.718Z,101951.47
2023-08-11T07:34:39.495Z,101973.28
2023-08-11T07:37:06.696Z,101960.38
2023-08-11T07:39:34.057Z,101959.31
2023-08-11T07:42:04.091Z,101965.44
2023-08-11T07:44:32.234Z,101972.03
2023-08-11T07:46:59.419Z,101972.34
2023-08-11T07:49:26.340Z,101964.88
2023-08-11T07:51:53.112Z,101969.25
2023-08-11T07:54:20.058Z,101962.56
2023-08-11T07:56:47.119Z,101979.44
2023-08-11T07:59:13.842Z,101965.13
2023-08-11T08:01:40.689Z,101954.91
2023-08-11T08:04:07.483Z,101957.69
2023-08-11T08:06:35.735Z,101949.94
2023-08-11T08:09:03.991Z,101960.88
2023-08-11T08:11:30.782Z,101962.69
2023-08-11T08:13:57.559Z,101960.50
2023-08-11T08:16:24.695Z,101952.63
2023-08-11T08:18:51.452Z,101959.72
2023-08-11T08:21:18.242Z,101946.09
2023-08-11T08:23:44.998Z,101956.06
2023-08-11T08:26:11.670Z,101939.91
2023-08-11T08:28:38.397Z,101958.44
2023-08-11T08:31:07.143Z,101950.94
2023-08-11T08:33:34.220Z,101907.91
2023-08-11T08:36:00.967Z,101938.13
2023-08-11T08:38:27.738Z,101930.16
2023-08-11T08:40:54.581Z,101942.72
2023-08-11T08:43:21.980Z,101950.28
2023-08-11T08:45:51.708Z,101939.38
2023-08-11T08:48:26.716Z,101939.72
2023-08-11T08:50:53.776Z,101943.81
2023-08-11T08:53:20.622Z,101911.31
2023-08-11T08:55:47.548Z,101943.56
2023-08-11T08:58:16.042Z,101937.88
2023-08-11T09:00:44.131Z,101925.25
2023-08-11T09:03:12.650Z,101945.72
2023-08-11T09:05:39.475Z,101927.97
2023-08-11T09:08:06.711Z,101935.66
2023-08-11T09:10:37.687Z,101937.72
2023-08-11T09:13:04.846Z,101930.84
2023-08-11T09:15:31.578Z,101945.06
2023-08-11T09:17:59.942Z,101922.97
2023-08-11T09:20:28.148Z,101948.03
2023-08-11T09:22:55.007Z,101927.97
2023-08-11T09:25:21.852Z,101929.50
2023-08-11T09:27:52.315Z,101929.31
2023-08-11T09:30:19.094Z,101918.91
2023-08-11T09:32:51.672Z,101925.75
2023-08-11T09:35:24.893Z,101916.31
2023-08-11T09:37:55.399Z,101923.81
2023-08-11T09:40:25.261Z,101935.97
2023-08-11T09:42:56.247Z,101941.41
2023-08-11T09:45:24.222Z,101935.09
2023-08-11T09:47:51.341Z,101919.41
2023-08-11T09:50:18.193Z,101914.19
2023-08-11T09:52:45.802Z,101930.25
2023-08-11T09:55:14.173Z,101922.94
2023-08-11T09:57:44.590Z,101917.53
2023-08-11T10:00:15.099Z,101926.69
2023-08-11T10:02:47.799Z,101886.41
2023-08-11T10:05:16.894Z,101928.34
2023-08-11T10:07:46.077Z,101923.28
2023-08-11T10:10:18.938Z,101913.00
2023-08-11T10:13:28.005Z,101923.59
2023-08-11T10:15:56.287Z,101926.09
2023-08-11T10:18:23.533Z,101895.94
2023-08-11T10:20:53.867Z,101898.41
2023-08-11T10:23:20.466Z,101926.75
2023-08-11T10:25:48.618Z,101913.75
2023-08-11T10:28:17.993Z,101885.38
2023-08-11T10:30:44.796Z,101897.13
2023-08-11T10:33:11.654Z,101910.19
2023-08-11T10:35:51.106Z,101907.00
2023-08-11T10:38:31.583Z,101914.63
2023-08-11T10:41:06.221Z,101920.41
2023-08-11T10:43:39.204Z,101891.84
2023-08-11T10:46:39.931Z,101916.16
2023-08-11T10:49:08.767Z,101913.00
2023-08-11T10:51:41.169Z,101896.31
2023-08-11T10:54:07.772Z,101910.72
2023-08-11T10:56:36.370Z,101911.19
2023-08-11T10:59:16.239Z,101918.75
2023-08-11T11:01:46.921Z,101897.22
2023-08-11T11:04:14.417Z,101906.63
2023-08-11T11:06:42.432Z,101901.69
2023-08-11T11:09:09.383Z,101873.09
2023-08-11T11:11:38.019Z,101898.16
2023-08-11T11:14:06.403Z,101872.25
2023-08-11T11:16:36.485Z,101886.34
2023-08-11T11:19:05.052Z,101869.22
2023-08-11T11:21:32.235Z,101879.06
2023-08-11T11:23:59.523Z,101891.47
2023-08-11T11:26:33.062Z,101893.13
2023-08-11T11:29:02.797Z,101891.47
2023-08-11T11:31:31.711Z,101875.88
2023-08-11T11:33:58.766Z,101863.59
2023-08-11T11:36:25.687Z,101882.84
2023-08-11T11:38:53.184Z,101880.34
2023-08-11T11:41:21.047Z,101889.13
2023-08-11T11:43:49.831Z,101889.53
2023-08-11T11:46:17.839Z,101878.63
2023-08-11T11:48:55.029Z,101881.66
2023-08-11T11:51:27.087Z,101873.28
2023-08-11T11:53:57.094Z,101862.94
2023-08-11T11:56:23.911Z,101838.75
2023-08-11T11:58:50.988Z,101870.19
2023-08-11T12:01:17.865Z,101863.59
2023-08-11T12:03:46.513Z,101864.28
2023-08-11T12:06:14.054Z,101869.81
2023-08-11T12:08:42.956Z,101873.31
2023-08-11T12:11:12.546Z,101867.16
2023-08-11T12:13:41.017Z,101866.94
2023-08-11T12:16:09.304Z,101864.44
2023-08-11T12:18:38.591Z,101852.06
2023-08-11T12:21:05.954Z,101862.66
2023-08-11T12:23:34.625Z,101857.38
2023-08-11T12:26:01.604Z,101848.81
2023-08-11T12:28:29.106Z,101864.53
2023-08-11T12:30:55.810Z,101856.34
2023-08-11T12:33:22.784Z,101857.78
2023-08-11T12:35:49.962Z,101851.94
2023-08-11T12:38:17.507Z,101859.34
2023-08-11T12:40:45.422Z,101859.63
2023-08-11T12:43:14.246Z,101866.41
2023-08-11T12:45:42.378Z,101846.56
2023-08-11T12:48:10.478Z,101863.13
2023-08-11T12:50:38.078Z,101823.66
2023-08-11T12:53:06.522Z,101859.38
2023-08-11T12:55:34.301Z,101819.06
2023-08-11T12:58:02.370Z,101859.47
2023-08-11T13:00:30.187Z,101829.31
2023-08-11T13:02:57.758Z,101832.56
2023-08-11T13:05:25.573Z,101844.59
2023-08-11T13:07:52.273Z,101839.28
2023-08-11T13:10:20.364Z,101829.28
2023-08-11T13:12:47.151Z,101829.16
2023-08-11T13:15:13.885Z,101841.44
2023-08-11T13:17:40.995Z,101838.56
2023-08-11T13:20:10.803Z,101844.16
2023-08-11T13:22:38.292Z,101819.66
2023-08-11T13:25:06.221Z,101813.97
2023-08-11T13:27:33.070Z,101840.69
2023-08-11T13:30:00.002Z,101840.59
2023-08-11T13:32:27.180Z,101835.84
2023-08-11T13:34:54.070Z,101829.44
2023-08-11T13:37:20.851Z,101816.09
2023-08-11T13:39:47.672Z,101833.69
2023-08-11T13:42:14.331Z,101780.09
2023-08-11T13:44:41.312Z,101830.25
2023-08-11T13:47:08.200Z,101817.53
2023-08-11T13:49:35.115Z,101807.06
2023-08-11T13:52:01.911Z,101812.19
2023-08-11T13:54:29.118Z,101821.31
2023-08-11T13:56:55.817Z,101816.22
2023-08-11T13:59:22.622Z,101798.47
2023-08-11T14:01:49.268Z,101774.25
2023-08-11T14:04:15.981Z,101799.31
2023-08-11T14:06:42.830Z,101764.06
2023-08-11T14:09:09.611Z,101787.19
2023-08-11T14:11:36.540Z,101797.22
2023-08-11T14:14:03.310Z,101774.75
2023-08-11T14:16:30.065Z,101788.88
2023-08-11T14:18:57.094Z,101778.66
2023-08-11T14:21:24.139Z,101787.69
2023-08-11T14:23:51.561Z,101792.53
2023-08-11T14:26:18.465Z,101795.41
2023-08-11T14:28:45.586Z,101799.34
2023-08-11T14:31:12.322Z,101788.63
2023-08-11T14:33:42.047Z,101809.78
2023-08-11T14:38:38.710Z,101795.06
2023-08-11T14:41:05.440Z,101793.38
2023-08-11T14:43:32.241Z,101794.81
2023-08-11T14:45:59.653Z,101767.38
2023-08-11T14:48:28.074Z,101794.69
2023-08-11T14:50:55.694Z,101809.41
2023-08-11T14:53:24.293Z,101792.31
2023-08-11T14:55:51.279Z,101789.56
2023-08-11T14:58:18.838Z,101761.16
2023-08-11T15:00:45.659Z,101764.94
2023-08-11T15:03:13.810Z,101792.91
2023-08-11T15:05:41.428Z,101777.00
2023-08-11T15:08:08.754Z,101773.03
2023-08-11T15:10:35.900Z,101786.38
2023-08-11T15:13:05.882Z,101788.03
2023-08-11T15:15:33.214Z,101766.72
2023-08-11T15:17:59.948Z,101785.72
2023-08-11T15:20:27.351Z,101759.25
2023-08-11T15:22:54.094Z,101789.09
2023-08-11T15:25:20.806Z,101779.31
2023-08-11T15:27:47.759Z,101773.97
2023-08-11T15:30:14.958Z,101788.69
2023-08-11T15:32:41.725Z,101771.66
2023-08-11T15:35:10.743Z,101768.28
2023-08-11T15:37:37.398Z,101788.22
2023-08-11T15:40:05.668Z,101779.28
2023-08-11T15:42:32.725Z,101791.56
2023-08-11T15:44:59.473Z,101755.56
2023-08-11T15:47:26.359Z,101781.06
2023-08-11T15:49:53.210Z,101763.59
2023-08-11T15:52:20.027Z,101763.75
2023-08-11T15:54:46.729Z,101770.63
2023-08-11T15:57:13.598Z,101747.25
2023-08-11T15:59:40.363Z,101774.19
2023-08-11T16:02:10.520Z,101764.66
2023-08-11T16:04:38.249Z,101759.53
2023-08-11T16:07:05.325Z,101752.72
2023-08-11T16:09:32.001Z,101746.06
2023-08-11T16:11:58.902Z,101741.94
2023-08-11T16:14:28.013Z,101766.81
2023-08-11T16:16:55.656Z,101746.56
2023-08-11T16:19:22.618Z,101737.41
2023-08-11T16:21:49.629Z,101759.81
2023-08-11T16:24:16.309Z,101757.16
2023-08-11T16:26:43.133Z,101760.13
2023-08-11T16:29:10.108Z,101732.72
2023-08-11T16:31:36.863Z,101706.94
2023-08-11T16:34:04.917Z,101748.59
2023-08-11T16:36:32.119Z,101714.72
2023-08-11T16:38:58.851Z,101749.78
2023-08-11T16:41:25.787Z,101753.06
2023-08-11T16:43:53.233Z,101757.31
2023-08-11T16:46:22.286Z,101779.09
2023-08-11T16:48:50.656Z,101766.72
2023-08-11T16:51:17.329Z,101781.97
2023-08-11T16:53:44.528Z,101767.81
2023-08-11T16:56:11.680Z,101764.91
2023-08-11T16:58:38.441Z,101770.97
2023-08-11T17:01:05.701Z,101758.88
2023-08-11T17:03:32.901Z,101778.97
2023-08-11T17:05:59.794Z,101770.88
2023-08-11T17:08:26.600Z,101776.13
2023-08-11T17:10:53.607Z,101782.03
2023-08-11T17:13:20.314Z,101768.13
2023-08-11T17:15:47.177Z,101767.50
2023-08-11T17:18:13.831Z,101772.31
2023-08-11T17:20:40.542Z,101775.94
2023-08-11T17:23:07.529Z,101764.28
2023-08-11T17:25:34.292Z,101793.53
2023-08-11T17:28:00.936Z,101783.50
2023-08-11T17:30:30.750Z,101796.94
2023-08-11T17:32:58.861Z,101777.72
2023-08-11T17:35:26.126Z,101797.38
2023-08-11T17:37:53.410Z,101761.50
2023-08-11T17:40:20.162Z,101789.84
2023-08-11T17:42:46.873Z,101774.84
2023-08-11T17:45:13.507Z,101781.94
2023-08-11T17:47:40.383Z,101772.78
2023-08-11T17:50:07.413Z,101772.78
2023-08-11T17:52:34.992Z,101770.28
2023-08-11T17:55:02.152Z,101770.69
2023-08-11T17:57:28.907Z,101769.47
2023-08-11T17:59:55.620Z,101755.28
2023-08-11T18:02:22.471Z,101724.78
2023-08-11T18:04:49.211Z,101770.06
2023-08-11T18:07:16.050Z,101772.38
2023-08-11T18:09:42.870Z,101774.66
2023-08-11T18:12:09.760Z,101792.22
2023-08-11T18:14:37.077Z,101785.97
2023-08-11T18:17:04.295Z,101788.25
2023-08-11T18:19:31.091Z,101773.84
2023-08-11T18:21:57.892Z,101706.38
2023-08-11T18:24:24.718Z,101786.56
2023-08-11T18:26:51.448Z,101800.56
2023-08-11T18:29:19.233Z,101773.59
2023-08-11T18:31:46.180Z,101799.94
2023-08-11T18:34:12.922Z,101803.69
2023-08-11T18:36:39.626Z,101794.47
2023-08-11T18:39:06.452Z,101800.13
2023-08-11T18:41:33.164Z,101777.31
2023-08-11T18:43:59.903Z,101800.72
2023-08-11T18:46:26.738Z,101805.31
2023-08-11T18:48:53.443Z,101788.53
2023-08-11T18:51:20.118Z,101799.63
2023-08-11T18:53:47.043Z,101822.34
2023-08-11T18:56:13.681Z,101817.28
2023-08-11T18:58:40.310Z,101813.25
2023-08-11T19:01:07.396Z,101824.72
2023-08-11T19:03:35.035Z,101821.34
2023-08-11T19:06:02.569Z,101808.94
2023-08-11T19:08:29.615Z,101797.38
2023-08-11T19:10:56.280Z,101820.75
2023-08-11T19:13:23.016Z,101805.28
2023-08-11T19:15:50.258Z,101795.13
2023-08-11T19:18:17.794Z,101822.75
2023-08-11T19:20:47.624Z,101798.03
2023-08-11T19:23:14.885Z,101828.53
2023-08-11T19:25:42.179Z,101825.97
2023-08-11T19:28:09.320Z,101820.56
2023-08-11T19:30:36.178Z,101806.28
2023-08-11T19:33:03.202Z,101822.13
2023-08-11T19:35:29.969Z,101829.59
2023-08-11T19:37:56.597Z,101825.59
2023-08-11T19:40:23.385Z,101824.97
2023-08-11T19:42:50.086Z,101813.50
2023-08-11T19:45:16.885Z,101814.91
2023-08-11T19:47:43.861Z,101834.09
2023-08-11T19:50:10.703Z,101821.75
2023-08-11T19:52:37.442Z,101830.69
2023-08-11T19:55:04.416Z,101830.25
2023-08-11T19:57:31.114Z,101815.34
2023-08-11T19:59:58.118Z,101833.72
2023-08-11T20:02:24.762Z,101833.06
2023-08-11T20:04:51.483Z,101822.13
2023-08-11T20:07:18.401Z,101819.19
2023-08-11T20:09:45.001Z,101828.31
2023-08-11T20:12:11.733Z,101835.78
2023-08-11T20:14:38.571Z,101827.78
2023-08-11T20:17:05.220Z,101827.78
2023-08-11T20:19:31.938Z,101833.56
2023-08-11T20:22:00.164Z,101837.34
2023-08-11T20:24:26.808Z,101837.06
2023-08-11T20:26:57.496Z,101825.50
2023-08-11T20:29:25.442Z,101838.84
2023-08-11T20:31:55.400Z,101830.22
2023-08-11T20:34:23.256Z,101817.41
2023-08-11T20:36:51.102Z,101827.31
2023-08-11T20:39:17.760Z,101831.94
2023-08-11T20:41:44.554Z,101800.50
2023-08-11T20:44:12.027Z,101820.63
2023-08-11T20:46:39.025Z,101823.16
2023-08-11T20:49:05.778Z,101764.88
2023-08-11T20:51:32.690Z,101807.59
2023-08-11T20:53:59.328Z,101809.25
2023-08-11T20:56:25.992Z,101800.91
2023-08-11T20:58:52.802Z,101787.41
2023-08-11T21:01:19.651Z,101815.44
2023-08-11T21:03:46.437Z,101801.66
2023-08-11T21:06:13.288Z,101796.25
2023-08-11T21:08:46.883Z,101808.34
2023-08-11T21:11:14.792Z,101806.03
2023-08-11T21:13:41.756Z,101790.28
2023-08-11T21:16:08.749Z,101797.81
2023-08-11T21:18:36.168Z,101772.25
2023-08-11T21:21:02.824Z,101790.47
2023-08-11T21:23:29.516Z,101774.75
2023-08-11T21:25:56.272Z,101791.06
2023-08-11T21:28:23.417Z,101798.75
2023-08-11T21:31:03.829Z,101801.47
2023-08-11T21:33:35.052Z,101794.78
2023-08-11T21:36:02.464Z,101805.94
2023-08-11T21:38:29.257Z,101776.63
2023-08-11T21:40:56.728Z,101795.22
2023-08-11T21:43:23.448Z,101782.88
2023-08-11T21:45:50.108Z,101789.97
2023-08-11T21:48:16.940Z,101795.34
2023-08-11T21:50:43.661Z,101778.56
2023-08-11T21:53:22.334Z,101723.16
2023-08-11T21:55:50.328Z,101771.91
2023-08-11T21:58:17.095Z,101795.78
2023-08-11T22:00:44.960Z,101799.50
2023-08-11T22:03:12.349Z,101790.47
2023-08-11T22:05:39.160Z,101737.47
2023-08-11T22:08:06.028Z,101786.75
2023-08-11T22:10:33.123Z,101776.28
2023-08-11T22:12:59.979Z,101772.97
2023-08-11T22:15:26.690Z,101769.97
2023-08-11T22:17:54.880Z,101783.09
2023-08-11T22:20:22.246Z,101778.72
2023-08-11T22:22:48.986Z,101772.22
2023-08-11T22:25:16.700Z,101763.63
2023-08-11T22:27:43.345Z,101770.25
2023-08-11T22:30:10.505Z,101765.56
2023-08-11T22:32:37.313Z,101774.31
2023-08-11T22:35:04.378Z,101799.72
2023-08-11T22:37:31.154Z,101783.34
2023-08-11T22:39:57.978Z,101802.16
2023-08-11T22:42:26.523Z,101781.03
2023-08-11T22:44:55.192Z,101776.09
2023-08-11T22:47:23.494Z,101790.06
2023-08-11T22:49:50.722Z,101778.13
2023-08-11T22:52:17.910Z,101774.59
2023-08-11T22:54:44.711Z,101763.50
2023-08-11T22:57:11.694Z,101772.63
2023-08-11T22:59:38.884Z,101717.59
2023-08-11T23:02:05.833Z,101759.03
2023-08-11T23:04:32.607Z,101750.09
2023-08-11T23:06:59.267Z,101761.16
2023-08-11T23:09:26.939Z,101750.09
2023-08-11T23:11:53.582Z,101761.56
2023-08-11T23:14:20.210Z,101763.22
2023-08-11T23:16:47.080Z,101751.50
2023-08-11T23:19:13.798Z,101745.16
2023-08-11T23:21:40.434Z,101746.09
2023-08-11T23:24:07.645Z,101744.78
2023-08-11T23:26:34.323Z,101750.66
2023-08-11T23:29:01.434Z,101727.19
2023-08-11T23:31:28.403Z,101738.72
2023-08-11T23:33:55.096Z,101710.28
2023-08-11T23:36:21.769Z,101741.31
2023-08-11T23:38:48.978Z,101755.47
2023-08-11T23:41:15.719Z,101737.97
2023-08-11T23:43:42.416Z,101722.47
2023-08-11T23:46:14.698Z,101739.19
2023-08-11T23:48:44.752Z,101736.78
2023-08-11T23:51:11.658Z,101721.91
2023-08-11T23:53:38.319Z,101729.34
2023-08-11T23:56:05.227Z,101726.34
2023-08-11T23:58:32.031Z,101737.59
